Forside
METAR-TAF:

METAR-TAF

Lufthavne :

Nowra, Australien

Breddekreds: 34-57S, længdekreds: 150-32E, højde: 122 m

Aktuelle vejr

Denne rapport blev lavet for 40 minutter siden, kl. 23:00 UTC
Vind 3 kt fra vestnordvest
Temperatur 25°C
Fugtighed 50%
Tryk 1011 hPa
Sigt 10 km eller mere

METAR: YSNW 192300Z AUTO 30003KT 9999 // NCD 25/14 Q1011

Tid: 10:40 (23:40 UTC)


TAF: fraværende

Vejrobservationer og prognoser fra mere end 4000 lufthavne (METAR og TAF).

De gule og røde prikker repræsenterer de meteorologiske stationer.

Flyt musen over at se navnet på stationen.

Så klik over at se vejr observationer og prognoser.

At skifte det kort: Klik på de grønne knapper med et sort kors for at zoome ind; på den grønne knap med en bindestreg for at zoome ud; eller på de grønne pile for tilstødende kort.


METAR-TAF: